sensor_id;sensor_type;location;lat;lon;timestamp;temperature;humidity
20706;DHT22;10514;49.468;11.044;2023-10-31T00:00:21;12.30;99.90
20706;DHT22;10514;49.468;11.044;2023-10-31T00:02:46;12.30;99.90
20706;DHT22;10514;49.468;11.044;2023-10-31T00:05:12;12.30;99.90
20706;DHT22;10514;49.468;11.044;2023-10-31T00:07:37;12.30;99.90
20706;DHT22;10514;49.468;11.044;2023-10-31T00:10:03;12.20;99.90
20706;DHT22;10514;49.468;11.044;2023-10-31T00:12:29;12.20;99.90
20706;DHT22;10514;49.468;11.044;2023-10-31T00:14:54;12.20;99.90
20706;DHT22;10514;49.468;11.044;2023-10-31T00:17:19;12.20;99.90
20706;DHT22;10514;49.468;11.044;2023-10-31T00:19:45;12.20;99.90
20706;DHT22;10514;49.468;11.044;2023-10-31T00:22:11;12.20;99.90
20706;DHT22;10514;49.468;11.044;2023-10-31T00:24:36;12.20;99.90
20706;DHT22;10514;49.468;11.044;2023-10-31T00:27:02;12.20;99.90
20706;DHT22;10514;49.468;11.044;2023-10-31T00:29:27;12.20;99.90
20706;DHT22;10514;49.468;11.044;2023-10-31T00:31:53;12.20;99.90
20706;DHT22;10514;49.468;11.044;2023-10-31T00:34:18;12.20;99.90
20706;DHT22;10514;49.468;11.044;2023-10-31T00:36:44;12.20;99.90
20706;DHT22;10514;49.468;11.044;2023-10-31T00:39:10;12.20;99.90
20706;DHT22;10514;49.468;11.044;2023-10-31T00:41:35;12.20;99.90
20706;DHT22;10514;49.468;11.044;2023-10-31T00:44:01;12.10;99.90
20706;DHT22;10514;49.468;11.044;2023-10-31T00:46:26;12.20;99.90
20706;DHT22;10514;49.468;11.044;2023-10-31T00:48:52;12.20;99.90
20706;DHT22;10514;49.468;11.044;2023-10-31T00:51:17;12.10;99.90
20706;DHT22;10514;49.468;11.044;2023-10-31T00:53:43;12.10;99.90
20706;DHT22;10514;49.468;11.044;2023-10-31T00:56:09;12.10;99.90
20706;DHT22;10514;49.468;11.044;2023-10-31T00:58:34;12.10;99.90
20706;DHT22;10514;49.468;11.044;2023-10-31T01:01:00;12.10;99.90
20706;DHT22;10514;49.468;11.044;2023-10-31T01:03:25;12.10;99.90
20706;DHT22;10514;49.468;11.044;2023-10-31T01:05:51;12.10;99.90
20706;DHT22;10514;49.468;11.044;2023-10-31T01:08:16;12.10;99.90
20706;DHT22;10514;49.468;11.044;2023-10-31T01:10:42;12.10;99.90
20706;DHT22;10514;49.468;11.044;2023-10-31T01:13:07;12.10;99.90
20706;DHT22;10514;49.468;11.044;2023-10-31T01:15:33;12.10;99.90
20706;DHT22;10514;49.468;11.044;2023-10-31T01:17:58;12.00;99.90
20706;DHT22;10514;49.468;11.044;2023-10-31T01:20:24;12.00;99.90
20706;DHT22;10514;49.468;11.044;2023-10-31T01:22:49;12.00;99.90
20706;DHT22;10514;49.468;11.044;2023-10-31T01:25:15;12.00;99.90
20706;DHT22;10514;49.468;11.044;2023-10-31T01:27:40;12.00;99.90
20706;DHT22;10514;49.468;11.044;2023-10-31T01:30:07;12.00;99.90
20706;DHT22;10514;49.468;11.044;2023-10-31T01:32:33;12.00;99.90
20706;DHT22;10514;49.468;11.044;2023-10-31T01:34:58;12.00;99.90
20706;DHT22;10514;49.468;11.044;2023-10-31T01:37:24;11.90;99.90
20706;DHT22;10514;49.468;11.044;2023-10-31T01:39:50;11.90;99.90
20706;DHT22;10514;49.468;11.044;2023-10-31T01:42:15;11.90;99.90
20706;DHT22;10514;49.468;11.044;2023-10-31T01:44:41;11.90;99.90
20706;DHT22;10514;49.468;11.044;2023-10-31T01:47:07;11.90;99.90
20706;DHT22;10514;49.468;11.044;2023-10-31T01:49:32;11.90;99.90
20706;DHT22;10514;49.468;11.044;2023-10-31T01:52:00;11.90;99.90
20706;DHT22;10514;49.468;11.044;2023-10-31T01:54:26;11.80;99.90
20706;DHT22;10514;49.468;11.044;2023-10-31T01:56:54;11.80;99.90
20706;DHT22;10514;49.468;11.044;2023-10-31T01:59:21;11.80;99.90
20706;DHT22;10514;49.468;11.044;2023-10-31T02:01:48;11.80;99.90
20706;DHT22;10514;49.468;11.044;2023-10-31T02:04:14;11.80;99.90
20706;DHT22;10514;49.468;11.044;2023-10-31T02:06:40;11.80;99.90
20706;DHT22;10514;49.468;11.044;2023-10-31T02:09:06;11.80;99.90
20706;DHT22;10514;49.468;11.044;2023-10-31T02:11:31;11.80;99.80
20706;DHT22;10514;49.468;11.044;2023-10-31T02:13:57;11.80;99.80
20706;DHT22;10514;49.468;11.044;2023-10-31T02:16:23;11.70;99.70
20706;DHT22;10514;49.468;11.044;2023-10-31T02:18:48;11.80;99.60
20706;DHT22;10514;49.468;11.044;2023-10-31T02:21:14;11.70;99.50
20706;DHT22;10514;49.468;11.044;2023-10-31T02:23:40;11.70;99.30
20706;DHT22;10514;49.468;11.044;2023-10-31T02:26:06;11.70;99.60
20706;DHT22;10514;49.468;11.044;2023-10-31T02:28:31;11.70;99.10
20706;DHT22;10514;49.468;11.044;2023-10-31T02:30:57;11.70;98.60
20706;DHT22;10514;49.468;11.044;2023-10-31T02:33:22;11.60;98.60
20706;DHT22;10514;49.468;11.044;2023-10-31T02:35:48;11.60;98.40
20706;DHT22;10514;49.468;11.044;2023-10-31T02:38:13;11.50;98.30
20706;DHT22;10514;49.468;11.044;2023-10-31T02:40:39;11.50;98.50
20706;DHT22;10514;49.468;11.044;2023-10-31T02:43:04;11.60;98.70
20706;DHT22;10514;49.468;11.044;2023-10-31T02:45:30;11.50;98.30
20706;DHT22;10514;49.468;11.044;2023-10-31T02:47:56;11.50;98.30
20706;DHT22;10514;49.468;11.044;2023-10-31T02:50:21;11.50;98.10
20706;DHT22;10514;49.468;11.044;2023-10-31T02:52:47;11.50;98.00
20706;DHT22;10514;49.468;11.044;2023-10-31T02:55:12;11.40;97.80
20706;DHT22;10514;49.468;11.044;2023-10-31T02:57:38;11.40;97.90
20706;DHT22;10514;49.468;11.044;2023-10-31T03:00:04;11.40;98.00
20706;DHT22;10514;49.468;11.044;2023-10-31T03:02:30;11.40;97.60
20706;DHT22;10514;49.468;11.044;2023-10-31T03:04:55;11.40;97.30
20706;DHT22;10514;49.468;11.044;2023-10-31T03:07:21;11.30;97.10
20706;DHT22;10514;49.468;11.044;2023-10-31T03:09:46;11.30;97.20
20706;DHT22;10514;49.468;11.044;2023-10-31T03:12:12;11.30;96.40
20706;DHT22;10514;49.468;11.044;2023-10-31T03:14:37;11.30;96.20
20706;DHT22;10514;49.468;11.044;2023-10-31T03:17:03;11.30;95.90
20706;DHT22;10514;49.468;11.044;2023-10-31T03:19:29;11.30;95.70
20706;DHT22;10514;49.468;11.044;2023-10-31T03:21:54;11.20;95.90
20706;DHT22;10514;49.468;11.044;2023-10-31T03:24:20;11.20;96.10
20706;DHT22;10514;49.468;11.044;2023-10-31T03:26:45;11.10;96.40
20706;DHT22;10514;49.468;11.044;2023-10-31T03:29:11;11.10;96.60
20706;DHT22;10514;49.468;11.044;2023-10-31T03:31:36;11.10;97.00
20706;DHT22;10514;49.468;11.044;2023-10-31T03:34:02;11.10;97.10
20706;DHT22;10514;49.468;11.044;2023-10-31T03:36:27;11.10;97.30
20706;DHT22;10514;49.468;11.044;2023-10-31T03:38:53;11.00;97.40
20706;DHT22;10514;49.468;11.044;2023-10-31T03:41:18;11.00;97.30
20706;DHT22;10514;49.468;11.044;2023-10-31T03:43:44;10.90;97.10
20706;DHT22;10514;49.468;11.044;2023-10-31T03:46:09;10.90;97.30
20706;DHT22;10514;49.468;11.044;2023-10-31T03:48:36;13.60;97.80
20706;DHT22;10514;49.468;11.044;2023-10-31T03:51:02;10.90;97.00
20706;DHT22;10514;49.468;11.044;2023-10-31T03:53:27;10.80;96.90
20706;DHT22;10514;49.468;11.044;2023-10-31T03:55:53;10.80;96.60
20706;DHT22;10514;49.468;11.044;2023-10-31T03:58:18;10.80;96.40
20706;DHT22;10514;49.468;11.044;2023-10-31T04:00:44;10.70;96.20
20706;DHT22;10514;49.468;11.044;2023-10-31T04:03:09;10.70;96.00
20706;DHT22;10514;49.468;11.044;2023-10-31T04:05:35;10.70;96.10
20706;DHT22;10514;49.468;11.044;2023-10-31T04:08:01;10.70;95.70
20706;DHT22;10514;49.468;11.044;2023-10-31T04:10:26;10.60;95.80
20706;DHT22;10514;49.468;11.044;2023-10-31T04:12:52;10.60;96.00
20706;DHT22;10514;49.468;11.044;2023-10-31T04:15:18;10.50;96.00
20706;DHT22;10514;49.468;11.044;2023-10-31T04:17:43;10.60;95.90
20706;DHT22;10514;49.468;11.044;2023-10-31T04:20:09;10.50;95.80
20706;DHT22;10514;49.468;11.044;2023-10-31T04:22:34;10.50;95.70
20706;DHT22;10514;49.468;11.044;2023-10-31T04:25:00;10.50;95.70
20706;DHT22;10514;49.468;11.044;2023-10-31T04:27:25;10.40;95.70
20706;DHT22;10514;49.468;11.044;2023-10-31T04:29:51;10.40;95.80
20706;DHT22;10514;49.468;11.044;2023-10-31T04:32:16;10.40;95.70
20706;DHT22;10514;49.468;11.044;2023-10-31T04:34:42;10.40;95.90
20706;DHT22;10514;49.468;11.044;2023-10-31T04:37:08;10.40;95.80
20706;DHT22;10514;49.468;11.044;2023-10-31T04:39:34;10.40;96.10
20706;DHT22;10514;49.468;11.044;2023-10-31T04:42:00;10.40;96.00
20706;DHT22;10514;49.468;11.044;2023-10-31T04:44:25;10.30;95.80
20706;DHT22;10514;49.468;11.044;2023-10-31T04:46:51;10.30;96.00
20706;DHT22;10514;49.468;11.044;2023-10-31T04:49:17;10.30;95.90
20706;DHT22;10514;49.468;11.044;2023-10-31T04:51:42;10.30;96.10
20706;DHT22;10514;49.468;11.044;2023-10-31T04:54:08;10.20;96.00
20706;DHT22;10514;49.468;11.044;2023-10-31T04:56:34;10.20;96.30
20706;DHT22;10514;49.468;11.044;2023-10-31T04:59:00;10.20;96.00
20706;DHT22;10514;49.468;11.044;2023-10-31T05:01:25;10.20;96.00
20706;DHT22;10514;49.468;11.044;2023-10-31T05:03:51;10.20;96.10
20706;DHT22;10514;49.468;11.044;2023-10-31T05:06:21;10.10;96.10
20706;DHT22;10514;49.468;11.044;2023-10-31T05:08:47;10.10;96.00
20706;DHT22;10514;49.468;11.044;2023-10-31T05:11:12;10.10;96.00
20706;DHT22;10514;49.468;11.044;2023-10-31T05:13:39;10.10;95.60
20706;DHT22;10514;49.468;11.044;2023-10-31T05:16:05;10.10;95.90
20706;DHT22;10514;49.468;11.044;2023-10-31T05:18:31;10.10;95.90
20706;DHT22;10514;49.468;11.044;2023-10-31T05:20:56;10.10;95.80
20706;DHT22;10514;49.468;11.044;2023-10-31T05:23:22;10.10;95.90
20706;DHT22;10514;49.468;11.044;2023-10-31T05:25:47;10.10;95.50
20706;DHT22;10514;49.468;11.044;2023-10-31T05:28:13;10.00;95.60
20706;DHT22;10514;49.468;11.044;2023-10-31T05:30:38;10.00;95.50
20706;DHT22;10514;49.468;11.044;2023-10-31T05:33:04;10.00;95.30
20706;DHT22;10514;49.468;11.044;2023-10-31T05:35:29;10.00;95.10
20706;DHT22;10514;49.468;11.044;2023-10-31T05:37:55;10.00;95.10
20706;DHT22;10514;49.468;11.044;2023-10-31T05:40:20;10.00;95.00
20706;DHT22;10514;49.468;11.044;2023-10-31T05:42:49;9.90;95.10
20706;DHT22;10514;49.468;11.044;2023-10-31T05:45:15;9.90;95.20
20706;DHT22;10514;49.468;11.044;2023-10-31T05:47:41;9.90;95.20
20706;DHT22;10514;49.468;11.044;2023-10-31T05:50:07;9.90;95.30
20706;DHT22;10514;49.468;11.044;2023-10-31T05:52:33;9.90;95.30
20706;DHT22;10514;49.468;11.044;2023-10-31T05:54:58;9.80;95.10
20706;DHT22;10514;49.468;11.044;2023-10-31T05:57:24;9.80;95.10
20706;DHT22;10514;49.468;11.044;2023-10-31T05:59:49;9.80;94.90
20706;DHT22;10514;49.468;11.044;2023-10-31T06:02:15;9.80;95.10
20706;DHT22;10514;49.468;11.044;2023-10-31T06:04:40;9.80;94.90
20706;DHT22;10514;49.468;11.044;2023-10-31T06:07:06;9.80;94.90
20706;DHT22;10514;49.468;11.044;2023-10-31T06:09:33;9.80;95.00
20706;DHT22;10514;49.468;11.044;2023-10-31T06:11:59;9.80;94.60
20706;DHT22;10514;49.468;11.044;2023-10-31T06:14:25;9.80;94.60
20706;DHT22;10514;49.468;11.044;2023-10-31T06:16:51;9.80;94.60
20706;DHT22;10514;49.468;11.044;2023-10-31T06:19:17;9.80;94.60
20706;DHT22;10514;49.468;11.044;2023-10-31T06:21:42;9.80;94.60
20706;DHT22;10514;49.468;11.044;2023-10-31T06:24:09;9.80;94.30
20706;DHT22;10514;49.468;11.044;2023-10-31T06:26:34;9.80;94.30
20706;DHT22;10514;49.468;11.044;2023-10-31T06:29:00;9.90;94.40
20706;DHT22;10514;49.468;11.044;2023-10-31T06:31:25;9.90;94.10
20706;DHT22;10514;49.468;11.044;2023-10-31T06:33:51;9.90;94.20
20706;DHT22;10514;49.468;11.044;2023-10-31T06:36:16;10.00;94.20
20706;DHT22;10514;49.468;11.044;2023-10-31T06:38:42;10.00;94.00
20706;DHT22;10514;49.468;11.044;2023-10-31T06:41:07;10.00;93.60
20706;DHT22;10514;49.468;11.044;2023-10-31T06:43:33;10.10;93.30
20706;DHT22;10514;49.468;11.044;2023-10-31T06:46:00;10.10;93.40
20706;DHT22;10514;49.468;11.044;2023-10-31T06:48:26;10.20;93.30
20706;DHT22;10514;49.468;11.044;2023-10-31T06:50:51;10.20;93.10
20706;DHT22;10514;49.468;11.044;2023-10-31T06:53:17;10.30;92.90
20706;DHT22;10514;49.468;11.044;2023-10-31T06:55:42;10.30;92.90
20706;DHT22;10514;49.468;11.044;2023-10-31T06:58:08;10.30;92.60
20706;DHT22;10514;49.468;11.044;2023-10-31T07:00:33;10.40;92.30
20706;DHT22;10514;49.468;11.044;2023-10-31T07:02:59;10.50;92.10
20706;DHT22;10514;49.468;11.044;2023-10-31T07:05:30;10.50;92.20
20706;DHT22;10514;49.468;11.044;2023-10-31T07:07:55;10.50;92.10
20706;DHT22;10514;49.468;11.044;2023-10-31T07:10:22;10.60;91.70
20706;DHT22;10514;49.468;11.044;2023-10-31T07:12:47;10.60;91.60
20706;DHT22;10514;49.468;11.044;2023-10-31T07:15:13;10.60;91.70
20706;DHT22;10514;49.468;11.044;2023-10-31T07:17:38;10.60;91.50
20706;DHT22;10514;49.468;11.044;2023-10-31T07:20:05;10.60;91.40
20706;DHT22;10514;49.468;11.044;2023-10-31T07:22:31;10.60;91.60
20706;DHT22;10514;49.468;11.044;2023-10-31T07:24:57;10.60;91.80
20706;DHT22;10514;49.468;11.044;2023-10-31T07:27:24;10.60;91.70
20706;DHT22;10514;49.468;11.044;2023-10-31T07:29:50;10.60;91.70
20706;DHT22;10514;49.468;11.044;2023-10-31T07:32:15;10.70;91.60
20706;DHT22;10514;49.468;11.044;2023-10-31T07:34:41;10.70;91.40
20706;DHT22;10514;49.468;11.044;2023-10-31T07:37:09;10.70;91.30
20706;DHT22;10514;49.468;11.044;2023-10-31T07:39:35;10.70;91.00
20706;DHT22;10514;49.468;11.044;2023-10-31T07:42:01;10.70;90.90
20706;DHT22;10514;49.468;11.044;2023-10-31T07:44:26;10.70;90.80
20706;DHT22;10514;49.468;11.044;2023-10-31T07:46:52;11.70;91.00
20706;DHT22;10514;49.468;11.044;2023-10-31T07:49:17;10.70;90.80
20706;DHT22;10514;49.468;11.044;2023-10-31T07:51:43;10.70;90.40
20706;DHT22;10514;49.468;11.044;2023-10-31T07:54:08;10.70;90.40
20706;DHT22;10514;49.468;11.044;2023-10-31T07:56:35;10.80;90.00
20706;DHT22;10514;49.468;11.044;2023-10-31T07:59:01;10.90;90.20
20706;DHT22;10514;49.468;11.044;2023-10-31T08:01:27;10.90;90.20
20706;DHT22;10514;49.468;11.044;2023-10-31T08:03:53;11.00;90.30
20706;DHT22;10514;49.468;11.044;2023-10-31T08:06:19;11.00;89.60
20706;DHT22;10514;49.468;11.044;2023-10-31T08:08:44;11.00;89.00
20706;DHT22;10514;49.468;11.044;2023-10-31T08:11:10;10.90;89.40
20706;DHT22;10514;49.468;11.044;2023-10-31T08:13:39;11.00;89.10
20706;DHT22;10514;49.468;11.044;2023-10-31T08:16:06;11.00;89.50
20706;DHT22;10514;49.468;11.044;2023-10-31T08:18:32;11.00;89.40
20706;DHT22;10514;49.468;11.044;2023-10-31T08:20:58;11.00;88.50
20706;DHT22;10514;49.468;11.044;2023-10-31T08:23:24;11.00;88.90
20706;DHT22;10514;49.468;11.044;2023-10-31T08:25:50;11.10;88.60
20706;DHT22;10514;49.468;11.044;2023-10-31T08:28:16;11.10;88.60
20706;DHT22;10514;49.468;11.044;2023-10-31T08:30:42;11.10;88.20
20706;DHT22;10514;49.468;11.044;2023-10-31T08:33:07;11.00;87.70
20706;DHT22;10514;49.468;11.044;2023-10-31T08:35:33;11.10;88.70
20706;DHT22;10514;49.468;11.044;2023-10-31T08:37:59;11.20;87.70
20706;DHT22;10514;49.468;11.044;2023-10-31T08:40:24;11.10;87.50
20706;DHT22;10514;49.468;11.044;2023-10-31T08:42:50;11.10;87.50
20706;DHT22;10514;49.468;11.044;2023-10-31T08:45:15;11.10;87.30
20706;DHT22;10514;49.468;11.044;2023-10-31T08:47:41;11.10;87.20
20706;DHT22;10514;49.468;11.044;2023-10-31T08:50:07;11.00;87.00
20706;DHT22;10514;49.468;11.044;2023-10-31T08:52:36;11.10;87.50
20706;DHT22;10514;49.468;11.044;2023-10-31T08:55:02;11.10;88.00
20706;DHT22;10514;49.468;11.044;2023-10-31T08:57:28;11.10;86.90
20706;DHT22;10514;49.468;11.044;2023-10-31T08:59:54;11.10;87.50
20706;DHT22;10514;49.468;11.044;2023-10-31T09:02:19;11.10;87.00
20706;DHT22;10514;49.468;11.044;2023-10-31T09:04:45;11.20;87.60
20706;DHT22;10514;49.468;11.044;2023-10-31T09:07:11;11.10;86.50
20706;DHT22;10514;49.468;11.044;2023-10-31T09:09:36;11.20;87.70
20706;DHT22;10514;49.468;11.044;2023-10-31T09:12:02;11.20;86.40
20706;DHT22;10514;49.468;11.044;2023-10-31T09:14:27;11.20;86.50
20706;DHT22;10514;49.468;11.044;2023-10-31T09:16:53;11.20;86.60
20706;DHT22;10514;49.468;11.044;2023-10-31T09:19:18;11.20;87.00
20706;DHT22;10514;49.468;11.044;2023-10-31T09:21:44;11.10;87.20
20706;DHT22;10514;49.468;11.044;2023-10-31T09:24:11;11.10;87.90
20706;DHT22;10514;49.468;11.044;2023-10-31T09:26:36;11.10;88.10
20706;DHT22;10514;49.468;11.044;2023-10-31T09:29:03;11.20;88.00
20706;DHT22;10514;49.468;11.044;2023-10-31T09:31:29;11.30;87.90
20706;DHT22;10514;49.468;11.044;2023-10-31T09:33:54;11.40;87.80
20706;DHT22;10514;49.468;11.044;2023-10-31T09:36:20;11.40;87.80
20706;DHT22;10514;49.468;11.044;2023-10-31T09:38:45;11.50;87.50
20706;DHT22;10514;49.468;11.044;2023-10-31T09:41:12;11.60;86.60
20706;DHT22;10514;49.468;11.044;2023-10-31T09:43:40;11.80;85.80
20706;DHT22;10514;49.468;11.044;2023-10-31T09:46:05;11.80;86.20
20706;DHT22;10514;49.468;11.044;2023-10-31T09:48:31;11.80;85.90
20706;DHT22;10514;49.468;11.044;2023-10-31T09:50:58;11.80;86.20
20706;DHT22;10514;49.468;11.044;2023-10-31T09:53:24;11.90;86.40
20706;DHT22;10514;49.468;11.044;2023-10-31T09:55:50;12.10;85.20
20706;DHT22;10514;49.468;11.044;2023-10-31T09:58:15;12.20;85.10
20706;DHT22;10514;49.468;11.044;2023-10-31T10:00:41;12.40;84.70
20706;DHT22;10514;49.468;11.044;2023-10-31T10:03:07;12.50;84.20
20706;DHT22;10514;49.468;11.044;2023-10-31T10:05:36;12.50;83.80
20706;DHT22;10514;49.468;11.044;2023-10-31T10:08:03;12.50;83.40
20706;DHT22;10514;49.468;11.044;2023-10-31T10:10:28;12.40;83.70
20706;DHT22;10514;49.468;11.044;2023-10-31T10:12:55;12.30;84.20
20706;DHT22;10514;49.468;11.044;2023-10-31T10:15:21;12.20;84.60
20706;DHT22;10514;49.468;11.044;2023-10-31T10:17:52;12.00;85.20
20706;DHT22;10514;49.468;11.044;2023-10-31T10:20:18;11.80;86.00
20706;DHT22;10514;49.468;11.044;2023-10-31T10:22:44;11.70;86.60
20706;DHT22;10514;49.468;11.044;2023-10-31T10:25:15;11.60;87.40
20706;DHT22;10514;49.468;11.044;2023-10-31T10:27:47;11.60;88.00
20706;DHT22;10514;49.468;11.044;2023-10-31T10:30:13;11.50;87.70
20706;DHT22;10514;49.468;11.044;2023-10-31T10:32:39;11.60;88.50
20706;DHT22;10514;49.468;11.044;2023-10-31T10:35:06;11.60;89.50
20706;DHT22;10514;49.468;11.044;2023-10-31T10:37:32;11.60;88.10
20706;DHT22;10514;49.468;11.044;2023-10-31T10:39:57;11.60;87.70
20706;DHT22;10514;49.468;11.044;2023-10-31T10:42:32;11.70;88.10
20706;DHT22;10514;49.468;11.044;2023-10-31T10:45:02;11.70;87.70
20706;DHT22;10514;49.468;11.044;2023-10-31T10:47:32;11.80;87.60
20706;DHT22;10514;49.468;11.044;2023-10-31T10:49:59;11.90;87.40
20706;DHT22;10514;49.468;11.044;2023-10-31T10:52:38;12.00;86.20
20706;DHT22;10514;49.468;11.044;2023-10-31T10:55:14;12.00;85.30
20706;DHT22;10514;49.468;11.044;2023-10-31T10:58:05;12.10;85.30
20706;DHT22;10514;49.468;11.044;2023-10-31T11:00:33;12.10;84.90
20706;DHT22;10514;49.468;11.044;2023-10-31T11:03:01;12.10;85.40
20706;DHT22;10514;49.468;11.044;2023-10-31T11:05:27;12.10;84.70
20706;DHT22;10514;49.468;11.044;2023-10-31T11:07:53;12.00;83.80
20706;DHT22;10514;49.468;11.044;2023-10-31T11:10:21;12.00;84.50
20706;DHT22;10514;49.468;11.044;2023-10-31T11:12:47;12.10;84.90
20706;DHT22;10514;49.468;11.044;2023-10-31T11:15:15;12.10;83.90
20706;DHT22;10514;49.468;11.044;2023-10-31T11:17:43;12.20;83.40
20706;DHT22;10514;49.468;11.044;2023-10-31T11:20:11;12.30;83.30
20706;DHT22;10514;49.468;11.044;2023-10-31T11:22:40;12.50;81.90
20706;DHT22;10514;49.468;11.044;2023-10-31T11:25:10;12.40;81.40
20706;DHT22;10514;49.468;11.044;2023-10-31T11:27:36;12.40;80.60
20706;DHT22;10514;49.468;11.044;2023-10-31T11:30:06;12.50;80.90
20706;DHT22;10514;49.468;11.044;2023-10-31T11:32:33;12.60;80.60
20706;DHT22;10514;49.468;11.044;2023-10-31T11:35:01;12.70;79.40
20706;DHT22;10514;49.468;11.044;2023-10-31T11:37:32;12.70;78.60
20706;DHT22;10514;49.468;11.044;2023-10-31T11:42:51;12.80;79.20
20706;DHT22;10514;49.468;11.044;2023-10-31T11:45:33;12.90;79.70
20706;DHT22;10514;49.468;11.044;2023-10-31T11:47:59;12.90;78.70
20706;DHT22;10514;49.468;11.044;2023-10-31T11:50:25;12.90;78.00
20706;DHT22;10514;49.468;11.044;2023-10-31T11:53:14;12.80;78.20
20706;DHT22;10514;49.468;11.044;2023-10-31T11:55:42;12.80;78.50
20706;DHT22;10514;49.468;11.044;2023-10-31T12:00:48;12.80;78.20
20706;DHT22;10514;49.468;11.044;2023-10-31T12:03:19;12.90;77.90
20706;DHT22;10514;49.468;11.044;2023-10-31T12:05:55;13.10;75.70
20706;DHT22;10514;49.468;11.044;2023-10-31T12:08:40;12.90;75.60
20706;DHT22;10514;49.468;11.044;2023-10-31T12:11:10;13.00;76.70
20706;DHT22;10514;49.468;11.044;2023-10-31T12:13:57;13.00;76.10
20706;DHT22;10514;49.468;11.044;2023-10-31T12:16:25;12.90;77.00
20706;DHT22;10514;49.468;11.044;2023-10-31T12:18:55;12.90;77.20
20706;DHT22;10514;49.468;11.044;2023-10-31T12:21:34;12.90;77.90
20706;DHT22;10514;49.468;11.044;2023-10-31T12:24:08;12.90;77.90
20706;DHT22;10514;49.468;11.044;2023-10-31T12:26:34;12.80;78.40
20706;DHT22;10514;49.468;11.044;2023-10-31T12:29:17;12.90;78.20
20706;DHT22;10514;49.468;11.044;2023-10-31T12:31:53;12.80;78.40
20706;DHT22;10514;49.468;11.044;2023-10-31T12:34:20;12.80;78.30
20706;DHT22;10514;49.468;11.044;2023-10-31T12:36:48;12.70;78.00
20706;DHT22;10514;49.468;11.044;2023-10-31T12:39:15;12.70;78.00
20706;DHT22;10514;49.468;11.044;2023-10-31T12:41:42;12.70;78.00
20706;DHT22;10514;49.468;11.044;2023-10-31T12:44:09;12.70;77.90
20706;DHT22;10514;49.468;11.044;2023-10-31T12:46:38;12.60;77.00
20706;DHT22;10514;49.468;11.044;2023-10-31T12:49:04;12.60;77.20
20706;DHT22;10514;49.468;11.044;2023-10-31T12:51:29;12.70;77.10
20706;DHT22;10514;49.468;11.044;2023-10-31T12:53:55;12.90;77.70
20706;DHT22;10514;49.468;11.044;2023-10-31T12:56:41;13.00;76.80
20706;DHT22;10514;49.468;11.044;2023-10-31T12:59:07;13.20;76.30
20706;DHT22;10514;49.468;11.044;2023-10-31T13:01:35;13.40;76.00
20706;DHT22;10514;49.468;11.044;2023-10-31T13:04:03;13.40;73.70
20706;DHT22;10514;49.468;11.044;2023-10-31T13:06:29;13.40;73.60
20706;DHT22;10514;49.468;11.044;2023-10-31T13:08:58;13.20;73.50
20706;DHT22;10514;49.468;11.044;2023-10-31T13:11:24;13.20;73.50
20706;DHT22;10514;49.468;11.044;2023-10-31T13:13:52;13.00;73.70
20706;DHT22;10514;49.468;11.044;2023-10-31T13:16:19;12.80;74.20
20706;DHT22;10514;49.468;11.044;2023-10-31T13:18:44;12.70;75.20
20706;DHT22;10514;49.468;11.044;2023-10-31T13:21:10;12.70;75.90
20706;DHT22;10514;49.468;11.044;2023-10-31T13:23:36;12.50;76.00
20706;DHT22;10514;49.468;11.044;2023-10-31T13:26:04;12.40;76.40
20706;DHT22;10514;49.468;11.044;2023-10-31T13:28:29;12.60;76.00
20706;DHT22;10514;49.468;11.044;2023-10-31T13:30:57;12.60;75.20
20706;DHT22;10514;49.468;11.044;2023-10-31T13:33:23;12.60;74.20
20706;DHT22;10514;49.468;11.044;2023-10-31T13:35:48;12.70;74.20
20706;DHT22;10514;49.468;11.044;2023-10-31T13:38:14;12.80;72.80
20706;DHT22;10514;49.468;11.044;2023-10-31T13:40:39;12.70;73.00
20706;DHT22;10514;49.468;11.044;2023-10-31T13:43:05;12.80;72.70
20706;DHT22;10514;49.468;11.044;2023-10-31T13:45:31;12.80;72.70
20706;DHT22;10514;49.468;11.044;2023-10-31T13:47:56;12.90;72.80
20706;DHT22;10514;49.468;11.044;2023-10-31T13:50:22;12.80;72.40
20706;DHT22;10514;49.468;11.044;2023-10-31T13:52:48;12.90;72.40
20706;DHT22;10514;49.468;11.044;2023-10-31T13:55:14;13.00;72.20
20706;DHT22;10514;49.468;11.044;2023-10-31T13:57:40;13.00;72.10
20706;DHT22;10514;49.468;11.044;2023-10-31T14:00:06;13.10;71.90
20706;DHT22;10514;49.468;11.044;2023-10-31T14:02:34;13.20;72.50
20706;DHT22;10514;49.468;11.044;2023-10-31T14:05:01;13.30;71.80
20706;DHT22;10514;49.468;11.044;2023-10-31T14:07:26;13.50;71.10
20706;DHT22;10514;49.468;11.044;2023-10-31T14:09:52;13.60;69.80
20706;DHT22;10514;49.468;11.044;2023-10-31T14:12:18;13.60;70.60
20706;DHT22;10514;49.468;11.044;2023-10-31T14:14:44;13.70;70.70
20706;DHT22;10514;49.468;11.044;2023-10-31T14:17:14;13.70;70.50
20706;DHT22;10514;49.468;11.044;2023-10-31T14:19:39;13.80;70.30
20706;DHT22;10514;49.468;11.044;2023-10-31T14:22:05;13.80;70.40
20706;DHT22;10514;49.468;11.044;2023-10-31T14:24:31;13.80;70.60
20706;DHT22;10514;49.468;11.044;2023-10-31T14:26:57;13.80;70.80
20706;DHT22;10514;49.468;11.044;2023-10-31T14:29:24;13.80;70.50
20706;DHT22;10514;49.468;11.044;2023-10-31T14:31:50;13.80;70.90
20706;DHT22;10514;49.468;11.044;2023-10-31T14:34:15;13.80;70.20
20706;DHT22;10514;49.468;11.044;2023-10-31T14:36:41;13.80;69.00
20706;DHT22;10514;49.468;11.044;2023-10-31T14:39:07;13.70;67.70
20706;DHT22;10514;49.468;11.044;2023-10-31T14:41:33;13.50;67.40
20706;DHT22;10514;49.468;11.044;2023-10-31T14:43:59;13.50;68.50
20706;DHT22;10514;49.468;11.044;2023-10-31T14:46:26;13.30;69.30
20706;DHT22;10514;49.468;11.044;2023-10-31T14:48:52;13.20;69.70
20706;DHT22;10514;49.468;11.044;2023-10-31T14:51:18;13.10;69.90
20706;DHT22;10514;49.468;11.044;2023-10-31T14:53:43;12.90;71.00
20706;DHT22;10514;49.468;11.044;2023-10-31T14:56:09;12.90;71.50
20706;DHT22;10514;49.468;11.044;2023-10-31T14:58:35;12.70;71.90
20706;DHT22;10514;49.468;11.044;2023-10-31T15:01:01;12.70;72.90
20706;DHT22;10514;49.468;11.044;2023-10-31T15:03:26;12.60;74.00
20706;DHT22;10514;49.468;11.044;2023-10-31T15:05:52;12.50;74.40
20706;DHT22;10514;49.468;11.044;2023-10-31T15:08:18;12.40;75.00
20706;DHT22;10514;49.468;11.044;2023-10-31T15:10:43;12.30;75.90
20706;DHT22;10514;49.468;11.044;2023-10-31T15:13:09;12.20;76.50
20706;DHT22;10514;49.468;11.044;2023-10-31T15:15:35;12.20;77.30
20706;DHT22;10514;49.468;11.044;2023-10-31T15:18:00;12.10;77.70